KSYR/SYR METAR and TAF weather

Enter ICAO airport designator
Station Type Date Time Source
KSYR METAR 2019/10/22 15:54 UTC NOAA

KSYR 221554Z 13013KT 10SM BKN029 OVC045 15/09 A2988 RMK AO2 SLP114 T01500089


Station Type Date Time Source
KSYR Decoded METAR 2019/10/22 15:54 UTC NOAA

SYRACUSE HANCOCK INTERNATIONAL AIRPORT , NY, United States (KSYR) 43-07N 76-06W 127M
Oct 22, 2019 - 11:54 AM EDT / 2019.10.22 1554 UTC
Wind: from the SE (130 degrees) at 15 MPH (13 KT):0
Visibility: 10 mile(s):0
Sky conditions: overcast
Temperature: 59.0 F (15.0 C)
Dew Point: 48.0 F (8.9 C)
Relative Humidity: 66%
Pressure (altimeter): 29.88 in. Hg (1011 hPa)
ob: KSYR 221554Z 13013KT 10SM BKN029 OVC045 15/09 A2988 RMK AO2 SLP114 T01500089
cycle: 16

Station Type Date Time Source
KSYR TAF 2019/10/22 14:12 UTC NOAA

TAF
AMD KSYR 221410Z 2214/2312 15011KT P6SM -SHRA BKN025 OVC040
FM222100 16009KT 4SM RA BR OVC013
FM230300 VRB04KT P6SM -SHRA SCT022 BKN028
FM230900 24006KT P6SM SCT030 BKN040

Example: see airport list